Flats, Nebraska
Current Conditions -  °F | °C
As of 6:53 AM on Wednesday 22 Oct 2014 (Local Time) from KLBF Reporting Station
Broken Clouds Broken Clouds  
Wind Chill: 58°   Ceiling: 12000
Heat Index: 58°   Visibility: 10mi
Dew Point: 49°   Wind: 5mph
Humidity: 72%   Direction: 140°SE
Pressure: 29.94"   Gusts: NA
Location:  41.1714°N, 101.184°W
Report Text: KLBF 221153Z AUTO 14004KT 10SM BKN120 14/09 A2994 RMK AO2 SLP119 T01440094 10172 20144 53012
Loading
Personal Weather Stations






























Interactive Weather Map
Tropical Storm Tracking
New forecast layout! Learn more

10-Day Weather Forecast

Advertisements
Track Severe Weather on mobile